Time;durP1;ratioP1;P1;durP2;ratioP2;P2;SDS_P1;SDS_P2;PMS_P1;PMS_P2;Temp;Humidity;BMP_temperature;BMP_pressure;BME280_temperature;BME280_humidity;BME280_pressure;Samples;Min_cycle;Max_cycle;Signal;HPM_P1;HPM_P2
2022/04/05 00:00:02;;;;;;;22.77;20.87;;;;;;;3.86;100.00;97724.47;2066235;28;20235;-73
2022/04/05 00:01:08;;;;;;;22.52;20.52;;;;;;;3.86;100.00;97729.75;2066197;28;20213;-72
2022/04/05 00:02:11;;;;;;;22.75;20.88;;;;;;;3.81;100.00;97735.09;2066091;28;20202;-72
2022/04/05 00:03:13;;;;;;;23.27;21.17;;;;;;;3.80;100.00;97715.06;2057796;28;20259;-72
2022/04/05 00:04:14;;;;;;;23.17;21.00;;;;;;;3.75;100.00;97734.38;2066225;28;20200;-72
2022/04/05 00:05:15;;;;;;;23.30;21.00;;;;;;;3.76;100.00;97735.16;2066097;28;20239;-73
2022/04/05 00:06:17;;;;;;;23.35;21.23;;;;;;;3.78;100.00;97706.66;2065692;28;20282;-72
2022/04/05 00:07:19;;;;;;;22.48;20.48;;;;;;;3.71;100.00;97743.91;2074148;28;20196;-72
2022/04/05 00:08:20;;;;;;;22.23;20.42;;;;;;;3.69;100.00;97723.09;2074221;28;20196;-73
2022/04/05 00:09:24;;;;;;;24.23;22.03;;;;;;;3.70;100.00;97721.25;2066737;28;20189;-72
2022/04/05 00:10:24;;;;;;;24.55;22.17;;;;;;;3.65;100.00;97703.66;2066746;28;20796;-73
2022/04/05 00:11:26;;;;;;;25.17;22.77;;;;;;;3.63;100.00;97713.69;2066825;28;20189;-72
2022/04/05 00:12:30;;;;;;;23.33;21.33;;;;;;;3.60;100.00;97732.72;2066710;28;20691;-72
2022/04/05 00:13:32;;;;;;;24.50;22.38;;;;;;;3.58;100.00;97720.91;2066709;28;20193;-72
2022/04/05 00:14:33;;;;;;;24.10;22.00;;;;;;;3.58;100.00;97720.91;2066704;28;20196;-72
2022/04/05 00:15:35;;;;;;;24.07;21.87;;;;;;;3.52;100.00;97700.91;2066057;28;20205;-72
2022/04/05 00:16:36;;;;;;;23.85;21.75;;;;;;;3.50;100.00;97697.78;2058132;28;20196;-73
2022/04/05 00:17:40;;;;;;;23.17;21.08;;;;;;;3.59;100.00;97696.09;2066069;28;20192;-72
2022/04/05 00:18:41;;;;;;;23.55;21.38;;;;;;;3.57;100.00;97696.38;2074293;28;20215;-72
2022/04/05 00:19:43;;;;;;;24.53;22.13;;;;;;;3.51;100.00;97708.06;2073720;28;20734;-72
2022/04/05 00:20:44;;;;;;;23.08;21.05;;;;;;;3.60;100.00;97710.84;2066019;28;20205;-73
2022/04/05 00:21:45;;;;;;;22.57;20.57;;;;;;;3.57;100.00;97737.78;2065725;28;20252;-72
2022/04/05 00:22:50;;;;;;;22.48;20.58;;;;;;;3.59;100.00;97696.09;2066636;28;20185;-72
2022/04/05 00:23:51;;;;;;;23.38;21.27;;;;;;;3.57;100.00;97721.97;2065330;28;20212;-72
2022/04/05 00:24:53;;;;;;;22.58;20.45;;;;;;;3.54;100.00;97696.16;2066057;28;20583;-73
2022/04/05 00:25:54;;;;;;;22.08;20.20;;;;;;;3.50;100.00;97692.50;2066708;28;20292;-73
2022/04/05 00:26:56;;;;;;;24.20;22.00;;;;;;;3.51;100.00;97681.69;2066592;28;20220;-73
2022/04/05 00:27:58;;;;;;;24.67;22.17;;;;;;;3.53;100.00;97669.00;2073955;28;20200;-73
2022/04/05 00:29:04;;;;;;;22.85;20.92;;;;;;;3.51;100.00;97704.63;2073939;28;20550;-74
2022/04/05 00:30:07;;;;;;;23.30;21.40;;;;;;;3.65;100.00;97679.91;2074015;28;20215;-74
2022/04/05 00:31:09;;;;;;;24.35;22.10;;;;;;;3.60;100.00;97685.25;2065851;28;20766;-73
2022/04/05 00:32:10;;;;;;;22.55;20.55;;;;;;;3.58;100.00;97699.78;2065935;28;20243;-73
2022/04/05 00:33:13;;;;;;;22.87;20.97;;;;;;;3.60;100.00;97674.69;2066579;28;20204;-73
2022/04/05 00:34:15;;;;;;;23.45;21.35;;;;;;;3.61;100.00;97675.47;2066531;28;20193;-74
2022/04/05 00:35:17;;;;;;;22.75;20.75;;;;;;;3.56;100.00;97701.91;2066558;28;20217;-73
2022/04/05 00:36:20;;;;;;;23.70;21.50;;;;;;;3.56;100.00;97684.25;2066129;28;20221;-73
2022/04/05 00:37:22;;;;;;;22.60;20.75;;;;;;;3.52;100.00;97677.19;2065775;28;20272;-73
2022/04/05 00:38:23;;;;;;;22.58;20.58;;;;;;;3.58;100.00;97678.69;2057843;28;20198;-73
2022/04/05 00:39:26;;;;;;;22.67;20.77;;;;;;;3.56;100.00;97691.38;2065854;28;20217;-74
2022/04/05 00:40:30;;;;;;;22.50;20.50;;;;;;;3.54;100.00;97683.75;2066722;28;20226;-73
2022/04/05 00:41:31;;;;;;;22.90;20.70;;;;;;;3.52;100.00;97699.06;2066628;28;20544;-73
2022/04/05 00:42:33;;;;;;;22.42;20.52;;;;;;;3.55;100.00;97660.78;2065650;28;20208;-73
2022/04/05 00:43:35;;;;;;;22.38;20.58;;;;;;;3.57;100.00;97671.88;2065866;28;20203;-73
2022/04/05 00:44:35;;;;;;;22.58;20.63;;;;;;;3.57;100.00;97674.50;2065750;28;20212;-74
2022/04/05 00:45:37;;;;;;;22.37;20.47;;;;;;;3.54;100.00;97670.56;2065976;28;20643;-73
2022/04/05 00:46:38;;;;;;;22.83;20.83;;;;;;;3.51;100.00;97678.25;2065794;28;20200;-73
2022/04/05 00:47:40;;;;;;;22.83;20.73;;;;;;;3.64;100.00;97669.63;2065414;28;20201;-73
2022/04/05 00:48:48;;;;;;;22.13;20.15;;;;;;;3.67;100.00;97669.09;2073931;28;20585;-73
2022/04/05 00:49:54;;;;;;;23.10;21.20;;;;;;;3.63;100.00;97662.78;2066655;28;20231;-73
2022/04/05 00:50:56;;;;;;;22.98;21.08;;;;;;;3.59;100.00;97670.50;2066121;28;20204;-73
2022/04/05 00:51:59;;;;;;;23.42;21.38;;;;;;;3.57;100.00;97658.69;2066533;28;20228;-73
2022/04/05 00:53:02;;;;;;;22.70;20.73;;;;;;;3.66;100.00;97665.66;2066429;28;20683;-74
2022/04/05 00:54:05;;;;;;;22.15;20.35;;;;;;;3.62;100.00;97658.59;2065753;28;20208;-73
2022/04/05 00:55:07;;;;;;;22.67;20.58;;;;;;;3.55;100.00;97653.66;2057967;28;20201;-73
2022/04/05 00:56:09;;;;;;;23.95;21.63;;;;;;;3.56;100.00;97651.81;2057409;28;20305;-73
2022/04/05 00:57:13;;;;;;;23.02;21.08;;;;;;;3.54;100.00;97657.38;2065816;28;20220;-74
2022/04/05 00:58:16;;;;;;;23.42;21.52;;;;;;;3.56;100.00;97654.44;2066371;28;20231;-74
2022/04/05 00:59:18;;;;;;;22.50;20.70;;;;;;;3.58;100.00;97650.47;2065019;28;20201;-73
2022/04/05 01:00:20;;;;;;;23.40;21.35;;;;;;;3.55;100.00;97655.53;2057405;28;20208;-73
2022/04/05 01:01:24;;;;;;;22.70;20.75;;;;;;;3.53;100.00;97653.16;2057699;28;20723;-73
2022/04/05 01:02:30;;;;;;;22.25;20.48;;;;;;;3.49;100.00;97661.94;2057976;28;20599;-73
2022/04/05 01:03:32;;;;;;;21.80;20.00;;;;;;;3.47;100.00;97646.38;2066130;28;20173;-73
2022/04/05 01:04:35;;;;;;;22.15;20.35;;;;;;;3.49;100.00;97651.41;2066431;28;20217;-73
2022/04/05 01:05:37;;;;;;;22.38;20.55;;;;;;;3.49;100.00;97646.13;2065622;28;20204;-73
2022/04/05 01:06:40;;;;;;;23.52;21.45;;;;;;;3.51;100.00;97651.91;2065445;28;20252;-73
2022/04/05 01:07:41;;;;;;;23.52;21.63;;;;;;;3.55;100.00;97676.63;2066517;28;20644;-73
2022/04/05 01:08:47;;;;;;;22.92;20.92;;;;;;;3.58;100.00;97649.69;2066248;28;20276;-73
2022/04/05 01:09:48;;;;;;;21.20;19.50;;;;;;;3.62;100.00;97651.47;2066400;28;20664;-73
2022/04/05 01:10:50;;;;;;;21.98;20.27;;;;;;;3.64;100.00;97653.81;2065593;28;20203;-73
2022/04/05 01:11:51;;;;;;;21.60;19.90;;;;;;;3.70;100.00;97660.59;2057647;28;20205;-73
2022/04/05 01:12:53;;;;;;;22.57;20.60;;;;;;;3.67;100.00;97651.41;2057541;28;20248;-73
2022/04/05 01:13:53;;;;;;;21.52;19.83;;;;;;;3.68;100.00;97660.88;2057597;28;20201;-73
2022/04/05 01:14:55;;;;;;;21.67;19.87;;;;;;;3.71;100.00;97648.19;2057554;28;20292;-74
2022/04/05 01:15:56;;;;;;;21.25;19.73;;;;;;;3.71;100.00;97654.25;2065897;28;20193;-73
2022/04/05 01:16:59;;;;;;;22.52;20.63;;;;;;;3.72;100.00;97652.38;2073655;28;20207;-73
2022/04/05 01:18:03;;;;;;;22.15;20.40;;;;;;;3.68;100.00;97644.28;2073443;28;20196;-73
2022/04/05 01:19:04;;;;;;;21.52;19.73;;;;;;;3.69;100.00;97636.06;2066412;28;20660;-73
2022/04/05 01:20:10;;;;;;;21.95;20.25;;;;;;;3.67;100.00;97634.78;2066323;28;20612;-73
2022/04/05 01:21:11;;;;;;;22.77;20.92;;;;;;;3.67;100.00;97629.53;2065029;28;20211;-73
2022/04/05 01:22:13;;;;;;;22.60;20.77;;;;;;;3.67;100.00;97640.84;2057032;28;20324;-73
2022/04/05 01:23:20;;;;;;;21.90;20.20;;;;;;;3.69;100.00;97637.94;2057522;28;20198;-73
2022/04/05 01:24:24;;;;;;;21.30;19.55;;;;;;;3.69;100.00;97633.44;2066306;28;20283;-73
2022/04/05 01:25:27;;;;;;;21.63;19.83;;;;;;;3.70;100.00;97631.56;2065454;28;20292;-73
2022/04/05 01:26:30;;;;;;;21.30;19.58;;;;;;;3.71;100.00;97633.13;2057789;28;20205;-74
2022/04/05 01:27:32;;;;;;;23.20;21.30;;;;;;;3.72;100.00;97624.16;2065777;28;20193;-73
2022/04/05 01:28:33;;;;;;;22.20;20.30;;;;;;;3.68;100.00;97623.19;2065465;28;20209;-73
2022/04/05 01:29:35;;;;;;;22.13;20.33;;;;;;;3.63;100.00;97624.03;2065571;28;20240;-73
2022/04/05 01:30:37;;;;;;;22.27;20.58;;;;;;;3.62;100.00;97614.53;2066163;28;20232;-73
2022/04/05 01:31:40;;;;;;;23.07;21.23;;;;;;;3.61;100.00;97610.34;2066195;28;20181;-73
2022/04/05 01:32:40;;;;;;;22.23;20.38;;;;;;;3.61;100.00;97617.47;2065971;28;20435;-73
2022/04/05 01:33:43;;;;;;;22.27;20.48;;;;;;;3.60;100.00;97610.63;2064789;28;20204;-73
2022/04/05 01:34:44;;;;;;;23.30;21.38;;;;;;;3.57;100.00;97621.75;2057577;28;20198;-73
2022/04/05 01:35:46;;;;;;;23.20;21.30;;;;;;;3.54;100.00;97625.72;2065530;28;20272;-73
2022/04/05 01:36:50;;;;;;;22.60;20.73;;;;;;;3.54;100.00;97632.84;2065815;28;20220;-73
2022/04/05 01:37:53;;;;;;;21.77;19.98;;;;;;;3.46;100.00;97658.00;2066042;28;20193;-73
2022/04/05 01:38:53;;;;;;;21.83;20.15;;;;;;;3.40;100.00;97622.25;2066090;28;20735;-72
2022/04/05 01:39:59;;;;;;;22.83;21.03;;;;;;;3.36;100.00;97610.69;2066211;28;20543;-72
2022/04/05 01:41:02;;;;;;;22.00;20.20;;;;;;;3.36;100.00;97627.28;2065038;28;20572;-73
2022/04/05 01:42:05;;;;;;;23.48;21.58;;;;;;;3.28;100.00;97646.38;2065591;28;20189;-72
2022/04/05 01:43:08;;;;;;;24.90;23.00;;;;;;;3.24;100.00;97624.31;2066027;28;20672;-73
2022/04/05 01:44:14;;;;;;;25.85;23.77;;;;;;;3.16;100.00;97632.06;2066028;28;20189;-73
2022/04/05 01:45:15;;;;;;;25.35;23.30;;;;;;;3.15;100.00;97628.63;2066092;28;20193;-72
2022/04/05 01:46:19;;;;;;;28.33;25.97;;;;;;;3.04;100.00;97633.25;2066021;28;20221;-72
2022/04/05 01:47:21;;;;;;;28.50;26.25;;;;;;;2.99;100.00;97630.66;2066039;28;20173;-72
2022/04/05 01:48:23;;;;;;;28.83;26.42;;;;;;;2.89;100.00;97633.41;2073661;28;20299;-73
2022/04/05 01:49:24;;;;;;;30.50;28.00;;;;;;;2.83;100.00;97639.81;2073443;28;20617;-72
2022/04/05 01:50:25;;;;;;;30.73;28.23;;;;;;;2.75;100.00;97635.16;2065928;28;20193;-72
2022/04/05 01:51:27;;;;;;;32.53;29.98;;;;;;;2.70;100.00;97637.84;2064964;28;20683;-72
2022/04/05 01:52:29;;;;;;;31.05;28.33;;;;;;;2.70;100.00;97641.25;2065655;28;20200;-72
2022/04/05 01:53:30;;;;;;;30.45;27.65;;;;;;;2.65;100.00;97643.16;2065914;28;20254;-72
2022/04/05 01:54:31;;;;;;;30.30;27.70;;;;;;;2.57;100.00;97636.66;2065923;28;20247;-72
2022/04/05 01:55:34;;;;;;;31.23;28.45;;;;;;;2.52;100.00;97642.75;2065266;28;20550;-72
2022/04/05 01:56:41;;;;;;;31.17;28.45;;;;;;;2.46;100.00;97666.78;2065627;28;20515;-72
2022/04/05 01:57:43;;;;;;;31.17;28.45;;;;;;;2.42;100.00;97647.31;2065293;28;20181;-73
2022/04/05 01:58:49;;;;;;;29.08;26.38;;;;;;;2.40;100.00;97642.34;2065357;28;20227;-72
2022/04/05 01:59:51;;;;;;;29.98;27.08;;;;;;;2.37;100.00;97645.53;2063879;28;20200;-72
2022/04/05 02:00:52;;;;;;;30.15;27.33;;;;;;;2.30;100.00;97637.16;2065365;28;20236;-72
2022/04/05 02:01:54;;;;;;;30.20;27.40;;;;;;;2.25;100.00;97643.25;2065254;28;20197;-72
2022/04/05 02:02:54;;;;;;;29.67;26.90;;;;;;;2.25;100.00;97642.47;2057255;28;20233;-72
2022/04/05 02:03:57;;;;;;;30.13;27.35;;;;;;;2.22;100.00;97641.19;2065487;28;20231;-72
2022/04/05 02:04:58;;;;;;;31.15;28.25;;;;;;;2.27;100.00;97637.72;2073346;28;20200;-72
2022/04/05 02:06:02;;;;;;;29.87;27.00;;;;;;;2.28;100.00;97643.78;2063972;28;20205;-71
2022/04/05 02:07:08;;;;;;;32.55;29.65;;;;;;;2.32;100.00;97634.25;2065503;28;20181;-72
2022/04/05 02:08:10;;;;;;;31.55;28.95;;;;;;;2.31;100.00;97644.00;2073444;28;20638;-72
2022/04/05 02:09:14;;;;;;;30.58;28.05;;;;;;;2.28;100.00;97643.78;2073322;28;20192;-72
2022/04/05 02:10:16;;;;;;;31.40;28.65;;;;;;;2.26;100.00;97628.28;2066084;28;20268;-72
2022/04/05 02:11:18;;;;;;;31.23;28.58;;;;;;;2.25;100.00;97637.97;2065861;28;20259;-72
2022/04/05 02:12:24;;;;;;;30.63;28.10;;;;;;;2.28;100.00;97635.88;2064816;28;20259;-73
2022/04/05 02:13:47;;;;;;;31.90;28.90;;;;;;;2.26;100.00;97626.44;2060005;28;20228;-73
2022/04/05 02:14:48;;;;;;;31.05;28.30;;;;;;;2.23;100.00;97632.22;2057208;28;20688;-72
2022/04/05 02:15:56;;;;;;;31.35;28.63;;;;;;;2.21;100.00;97638.81;2058297;28;20241;-72
2022/04/05 02:17:01;;;;;;;31.33;28.40;;;;;;;2.21;100.00;97634.34;2057801;28;20264;-72
2022/04/05 02:18:04;;;;;;;33.15;30.00;;;;;;;2.19;100.00;97631.22;2057383;28;20203;-72
2022/04/05 02:19:09;;;;;;;33.10;30.20;;;;;;;2.16;100.00;97636.22;2065430;28;20246;-72
2022/04/05 02:20:15;;;;;;;32.13;29.45;;;;;;;2.15;100.00;97634.66;2072677;28;20592;-72
2022/04/05 02:21:16;;;;;;;32.30;29.60;;;;;;;2.12;100.00;97619.44;2072765;28;20695;-72
2022/04/05 02:22:18;;;;;;;31.73;29.07;;;;;;;2.09;100.00;97622.63;2065152;28;20699;-73
2022/04/05 02:23:20;;;;;;;31.08;28.17;;;;;;;2.08;100.00;97624.44;2057370;28;20189;-72
2022/04/05 02:24:28;;;;;;;30.70;28.00;;;;;;;2.06;100.00;97612.63;2057789;28;20264;-72
2022/04/05 02:25:31;;;;;;;30.55;27.85;;;;;;;2.12;100.00;97633.38;2057227;28;20206;-73
2022/04/05 02:26:39;;;;;;;30.13;27.55;;;;;;;2.19;100.00;97631.22;2065615;28;20199;-72
2022/04/05 02:27:41;;;;;;;31.75;29.02;;;;;;;2.18;100.00;97624.38;2065199;28;20195;-72
2022/04/05 02:28:47;;;;;;;31.52;28.73;;;;;;;2.15;100.00;97613.63;2057444;28;20225;-72
2022/04/05 02:29:49;;;;;;;31.13;28.45;;;;;;;2.11;100.00;97629.19;2057788;28;20216;-72
2022/04/05 02:30:56;;;;;;;31.60;29.00;;;;;;;2.13;100.00;97619.16;2057753;28;20193;-72
2022/04/05 02:32:12;;;;;;;32.10;29.35;;;;;;;2.08;100.00;97624.44;2058585;28;20280;-72
2022/04/05 02:33:16;;;;;;;30.33;27.60;;;;;;;2.09;100.00;97610.25;2058390;28;20321;-72
2022/04/05 02:34:19;;;;;;;30.13;27.52;;;;;;;2.13;100.00;97613.91;2057397;28;20196;-72
2022/04/05 02:35:28;;;;;;;29.08;26.60;;;;;;;2.21;100.00;97631.72;2066264;28;20212;-72
2022/04/05 02:36:30;;;;;;;31.88;29.05;;;;;;;2.20;100.00;97619.63;2064414;28;20247;-72
2022/04/05 02:37:32;;;;;;;30.52;27.77;;;;;;;2.12;100.00;97629.97;2065186;28;20299;-72
2022/04/05 02:38:33;;;;;;;30.98;28.30;;;;;;;2.06;100.00;97616.06;2065163;28;20663;-72
2022/04/05 02:39:36;;;;;;;32.58;29.67;;;;;;;2.02;100.00;97622.16;2057180;28;20194;-72
2022/04/05 02:40:39;;;;;;;32.38;29.65;;;;;;;2.03;100.00;97607.94;2057302;28;20213;-72
2022/04/05 02:41:44;;;;;;;31.75;28.92;;;;;;;2.01;100.00;97621.38;2057345;28;20245;-72
2022/04/05 02:42:45;;;;;;;31.50;28.70;;;;;;;2.09;100.00;97612.91;2057326;28;20288;-72
2022/04/05 02:43:49;;;;;;;30.55;27.95;;;;;;;2.11;100.00;97613.41;2057310;28;20232;-72
2022/04/05 02:44:52;;;;;;;30.95;28.38;;;;;;;2.11;100.00;97621.28;2065159;28;20280;-72
2022/04/05 02:45:55;;;;;;;31.23;28.60;;;;;;;2.10;100.00;97606.56;2065171;28;20247;-72
2022/04/05 02:46:57;;;;;;;30.60;28.00;;;;;;;2.09;100.00;97612.91;2057215;28;20317;-72
2022/04/05 02:48:03;;;;;;;30.27;27.60;;;;;;;2.09;100.00;97628.69;2057527;28;20205;-72
2022/04/05 02:49:06;;;;;;;30.42;27.83;;;;;;;2.05;100.00;97619.75;2057742;28;20201;-72
2022/04/05 02:50:11;;;;;;;31.38;28.60;;;;;;;2.05;100.00;97609.22;2057369;28;20696;-72
2022/04/05 02:51:14;;;;;;;31.60;28.73;;;;;;;2.07;100.00;97622.88;2057035;28;20304;-72
2022/04/05 02:52:16;;;;;;;31.25;28.75;;;;;;;2.08;100.00;97613.16;2057099;28;20205;-72
2022/04/05 02:53:25;;;;;;;31.77;29.08;;;;;;;2.08;100.00;97613.16;2057998;28;20205;-72
2022/04/05 02:54:28;;;;;;;33.35;30.55;;;;;;;2.15;100.00;97619.66;2064970;28;20628;-72
2022/04/05 02:55:33;;;;;;;32.95;30.05;;;;;;;2.10;100.00;97617.09;2057104;28;20197;-72
2022/04/05 02:56:35;;;;;;;33.20;30.40;;;;;;;2.13;100.00;97613.91;2057171;28;20562;-72
2022/04/05 02:57:38;;;;;;;31.95;29.13;;;;;;;2.16;100.00;97630.97;2065344;28;20192;-72
2022/04/05 02:58:43;;;;;;;33.60;30.33;;;;;;;2.14;100.00;97614.69;2065018;28;20193;-72
2022/04/05 02:59:44;;;;;;;31.20;28.60;;;;;;;2.15;100.00;97630.19;2057238;28;20228;-72
2022/04/05 03:00:46;;;;;;;32.60;29.90;;;;;;;2.11;100.00;97642.34;2056979;28;20199;-72
2022/04/05 03:01:54;;;;;;;32.10;29.38;;;;;;;2.12;100.00;97612.31;2065086;28;20177;-72
2022/04/05 03:02:56;;;;;;;31.08;28.52;;;;;;;2.09;100.00;97604.22;2064984;28;20275;-72
2022/04/05 03:03:58;;;;;;;30.85;28.17;;;;;;;2.07;100.00;97617.63;2057001;28;20193;-71
2022/04/05 03:04:59;;;;;;;30.88;28.27;;;;;;;2.11;100.00;97621.28;2057055;28;20209;-72
2022/04/05 03:06:02;;;;;;;30.00;27.60;;;;;;;2.08;100.00;97616.56;2056392;28;20249;-72
2022/04/05 03:07:04;;;;;;;29.65;27.15;;;;;;;2.07;100.00;97612.38;2057355;28;20209;-72
2022/04/05 03:08:08;;;;;;;30.95;28.25;;;;;;;2.08;100.00;97619.19;2057071;28;20193;-72
2022/04/05 03:09:12;;;;;;;32.58;29.88;;;;;;;2.02;100.00;97604.53;2057706;28;20679;-72
2022/04/05 03:10:15;;;;;;;31.30;28.77;;;;;;;2.02;100.00;97609.78;2057101;28;20197;-72
2022/04/05 03:11:21;;;;;;;30.75;28.17;;;;;;;2.00;100.00;97609.28;2059145;28;20193;-72
2022/04/05 03:12:24;;;;;;;29.17;26.80;;;;;;;2.05;100.00;97606.59;2066924;28;20197;-72
2022/04/05 03:13:30;;;;;;;30.83;28.42;;;;;;;2.07;100.00;97612.38;2066803;28;20192;-71
2022/04/05 03:14:31;;;;;;;31.58;29.17;;;;;;;2.10;100.00;97622.34;2066562;28;20590;-72
2022/04/05 03:15:34;;;;;;;32.15;29.65;;;;;;;2.13;100.00;97602.59;2066527;28;20785;-72
2022/04/05 03:16:39;;;;;;;31.13;28.63;;;;;;;2.12;100.00;97588.66;2058826;28;20280;-72
2022/04/05 03:17:47;;;;;;;28.98;26.58;;;;;;;2.10;100.00;97603.94;2059369;28;20185;-72
2022/04/05 03:18:53;;;;;;;28.50;26.30;;;;;;;2.13;100.00;97598.09;2059328;28;20253;-72
2022/04/05 03:19:55;;;;;;;29.50;27.00;;;;;;;2.15;100.00;97603.88;2066516;28;20201;-72
2022/04/05 03:20:57;;;;;;;27.30;25.10;;;;;;;2.14;100.00;97604.94;2065863;28;20204;-71
2022/04/05 03:22:01;;;;;;;26.85;24.60;;;;;;;2.16;100.00;97594.91;2058347;28;20221;-72
2022/04/05 03:23:04;;;;;;;28.33;26.05;;;;;;;2.14;100.00;97599.69;2058699;28;20209;-72
2022/04/05 03:24:08;;;;;;;28.20;25.88;;;;;;;2.13;100.00;97594.69;2066385;28;20268;-71
2022/04/05 03:25:10;;;;;;;27.98;25.77;;;;;;;2.13;100.00;97613.13;2066440;28;20189;-72
2022/04/05 03:26:12;;;;;;;27.42;25.27;;;;;;;2.12;100.00;97616.81;2058442;28;20204;-71
2022/04/05 03:27:14;;;;;;;27.08;24.98;;;;;;;2.10;100.00;97606.56;2058408;28;20213;-72
2022/04/05 03:28:20;;;;;;;28.63;26.43;;;;;;;2.09;100.00;97598.97;2058347;28;20194;-72
2022/04/05 03:29:24;;;;;;;29.38;27.17;;;;;;;2.13;100.00;97605.22;2058523;28;20225;-71
2022/04/05 03:30:27;;;;;;;28.75;26.55;;;;;;;2.12;100.00;97601.81;2058700;28;20226;-71
2022/04/05 03:31:29;;;;;;;27.17;25.05;;;;;;;2.12;100.00;97593.13;2058916;28;20668;-72
2022/04/05 03:32:32;;;;;;;25.80;23.90;;;;;;;2.22;100.00;97593.03;2058467;28;20680;-72
2022/04/05 03:33:33;;;;;;;25.80;23.80;;;;;;;2.27;100.00;97595.63;2058476;28;20205;-72
2022/04/05 03:34:37;;;;;;;25.85;23.92;;;;;;;2.23;100.00;97595.38;2058637;28;20686;-72
2022/04/05 03:35:39;;;;;;;27.55;25.45;;;;;;;2.23;100.00;97587.50;2066378;28;20295;-71
2022/04/05 03:36:43;;;;;;;26.38;24.38;;;;;;;2.21;100.00;97589.63;2066042;28;20280;-72
2022/04/05 03:37:44;;;;;;;26.30;24.30;;;;;;;2.17;100.00;97596.50;2058374;28;20296;-71
2022/04/05 03:38:47;;;;;;;26.02;24.13;;;;;;;2.14;100.00;97580.47;2058483;28;20229;-72
2022/04/05 03:39:49;;;;;;;26.42;24.52;;;;;;;2.14;100.00;97604.16;2058521;28;20671;-72
2022/04/05 03:40:51;;;;;;;25.50;23.60;;;;;;;2.16;100.00;97594.13;2058248;28;20193;-72
2022/04/05 03:41:52;;;;;;;24.50;22.70;;;;;;;2.13;100.00;97579.69;2058365;28;20676;-72
2022/04/05 03:42:57;;;;;;;23.90;22.20;;;;;;;2.12;100.00;97583.38;2066271;28;20192;-72
2022/04/05 03:44:00;;;;;;;23.73;21.98;;;;;;;2.14;100.00;97581.25;2066361;28;20232;-72
2022/04/05 03:45:10;;;;;;;23.75;22.05;;;;;;;2.18;100.00;97592.81;2059312;28;20189;-72
2022/04/05 03:46:12;;;;;;;23.90;22.10;;;;;;;2.18;100.00;97587.56;2058581;28;20221;-71
2022/04/05 03:47:14;;;;;;;23.40;21.70;;;;;;;2.20;100.00;97595.94;2058314;28;20194;-72
2022/04/05 03:48:16;;;;;;;24.00;22.10;;;;;;;2.17;100.00;97599.13;2058205;28;20253;-71
2022/04/05 03:49:18;;;;;;;23.65;21.88;;;;;;;2.18;100.00;97590.19;2066432;28;20675;-71
2022/04/05 03:50:24;;;;;;;24.02;22.33;;;;;;;2.20;100.00;97590.69;2066312;28;20197;-71
2022/04/05 03:51:30;;;;;;;22.23;20.60;;;;;;;2.18;100.00;97592.81;2054022;28;20264;-71
2022/04/05 03:52:35;;;;;;;22.85;21.15;;;;;;;2.24;100.00;97586.41;2050854;28;20214;-71
2022/04/05 03:53:37;;;;;;;22.02;20.58;;;;;;;2.25;100.00;97592.47;2050211;28;20265;-72
2022/04/05 03:54:44;;;;;;;23.58;21.88;;;;;;;2.26;100.00;97580.91;2059189;28;20210;-72
2022/04/05 03:55:49;;;;;;;22.67;21.08;;;;;;;2.25;100.00;97581.94;2065998;28;20182;-72
2022/04/05 03:56:53;;;;;;;22.05;20.45;;;;;;;2.24;100.00;97583.00;2058128;28;20648;-72
2022/04/05 03:57:56;;;;;;;21.13;19.63;;;;;;;2.22;100.00;97593.81;2050667;28;20249;-72
2022/04/05 03:59:01;;;;;;;21.25;19.75;;;;;;;2.19;100.00;97583.84;2058434;28;20676;-72
2022/04/05 04:00:02;;;;;;;21.70;20.20;;;;;;;2.17;100.00;97580.72;2058171;28;20193;-72
2022/04/05 04:01:07;;;;;;;21.25;19.70;;;;;;;2.17;100.00;97575.47;2058338;28;20190;-72
2022/04/05 04:02:08;;;;;;;22.35;20.85;;;;;;;2.20;100.00;97582.00;2058783;28;20197;-72
2022/04/05 04:03:10;;;;;;;22.38;20.88;;;;;;;2.23;100.00;97590.13;2058115;28;20225;-72
2022/04/05 04:04:13;;;;;;;22.08;20.48;;;;;;;2.30;100.00;97575.88;2058153;28;20656;-72
2022/04/05 04:05:20;;;;;;;23.08;21.48;;;;;;;2.30;100.00;97583.75;2065798;28;20185;-72
2022/04/05 04:06:25;;;;;;;21.90;20.20;;;;;;;2.37;100.00;97590.25;2065372;28;20221;-71
2022/04/05 04:07:26;;;;;;;22.00;20.05;;;;;;;2.35;100.00;97583.72;2058469;28;20640;-72
2022/04/05 04:08:28;;;;;;;21.93;20.03;;;;;;;2.38;100.00;97580.53;2050197;28;20576;-72
2022/04/05 04:09:32;;;;;;;21.42;19.83;;;;;;;2.42;100.00;97586.78;2050262;28;20300;-72
2022/04/05 04:10:35;;;;;;;22.50;20.80;;;;;;;2.40;100.00;97573.13;2058156;28;20227;-72
2022/04/05 04:11:40;;;;;;;22.42;20.83;;;;;;;2.41;100.00;97585.22;2065985;28;20217;-72
2022/04/05 04:12:43;;;;;;;23.30;21.52;;;;;;;2.38;100.00;97572.63;2057996;28;20204;-72
2022/04/05 04:13:44;;;;;;;22.80;21.20;;;;;;;2.39;100.00;97571.56;2050137;28;20696;-72
2022/04/05 04:14:48;;;;;;;22.60;21.13;;;;;;;2.39;100.00;97567.06;2058412;28;20186;-72
2022/04/05 04:15:56;;;;;;;22.02;20.52;;;;;;;2.46;100.00;97582.53;2066037;28;20220;-72
2022/04/05 04:16:59;;;;;;;21.63;20.10;;;;;;;2.42;100.00;97586.78;2057642;28;20206;-72
2022/04/05 04:18:00;;;;;;;21.08;19.67;;;;;;;2.42;100.00;97586.78;2058319;28;20579;-72
2022/04/05 04:19:02;;;;;;;21.95;20.38;;;;;;;2.42;100.00;97584.16;2057619;28;20226;-72
2022/04/05 04:20:07;;;;;;;22.00;20.38;;;;;;;2.41;100.00;97572.84;2058427;28;20256;-72
2022/04/05 04:21:09;;;;;;;21.90;20.33;;;;;;;2.45;100.00;97573.09;2059718;28;20202;-73
2022/04/05 04:22:10;;;;;;;22.73;21.02;;;;;;;2.51;100.00;97579.84;2057571;28;20221;-72
2022/04/05 04:23:13;;;;;;;21.65;20.15;;;;;;;2.49;100.00;97581.97;2057732;28;20663;-72
2022/04/05 04:24:18;;;;;;;21.90;20.50;;;;;;;2.47;100.00;97592.00;2066553;28;20228;-72
2022/04/05 04:25:24;;;;;;;21.20;19.70;;;;;;;2.53;100.00;97583.00;2065983;28;20267;-72
2022/04/05 04:26:26;;;;;;;21.63;20.10;;;;;;;2.48;100.00;97593.56;2058708;28;20570;-72
2022/04/05 04:27:27;;;;;;;23.17;21.40;;;;;;;2.50;100.00;97586.94;2066026;28;20232;-72
2022/04/05 04:28:28;;;;;;;23.50;21.90;;;;;;;2.51;100.00;97579.84;2065621;28;20215;-72
2022/04/05 04:29:32;;;;;;;24.48;22.67;;;;;;;2.49;100.00;97587.25;2058211;28;20289;-72
2022/04/05 04:30:32;;;;;;;23.73;22.02;;;;;;;2.46;100.00;97585.19;2066001;28;20193;-72
2022/04/05 04:31:36;;;;;;;24.73;22.93;;;;;;;2.45;100.00;97589.66;2066583;28;20185;-72
2022/04/05 04:32:43;;;;;;;24.00;22.30;;;;;;;2.45;100.00;97588.88;2066636;28;20605;-72
2022/04/05 04:33:44;;;;;;;24.13;22.42;;;;;;;2.44;100.00;97588.09;2066652;28;20635;-72
2022/04/05 04:34:46;;;;;;;24.80;22.93;;;;;;;2.45;100.00;97592.28;2066571;28;20548;-72
2022/04/05 04:35:47;;;;;;;24.75;22.85;;;;;;;2.44;100.00;97589.94;2066584;28;20196;-72
2022/04/05 04:36:49;;;;;;;24.33;22.63;;;;;;;2.50;100.00;97589.59;2066063;28;20227;-72
2022/04/05 04:37:50;;;;;;;23.95;22.25;;;;;;;2.49;100.00;97603.81;2066533;28;20201;-72
2022/04/05 04:38:53;;;;;;;24.13;22.43;;;;;;;2.47;100.00;97602.53;2066518;28;20215;-72
2022/04/05 04:39:54;;;;;;;24.40;22.55;;;;;;;2.46;100.00;97598.34;2065872;28;20664;-72
2022/04/05 04:40:55;;;;;;;24.47;22.67;;;;;;;2.52;100.00;97591.97;2065880;28;20612;-72
2022/04/05 04:41:57;;;;;;;25.20;23.40;;;;;;;2.57;100.00;97593.75;2065471;28;20694;-72
2022/04/05 04:42:59;;;;;;;25.17;23.38;;;;;;;2.62;100.00;97596.34;2066008;28;20189;-72
2022/04/05 04:43:59;;;;;;;25.83;24.02;;;;;;;2.61;100.00;97595.56;2066507;28;20686;-72
2022/04/05 04:45:02;;;;;;;25.07;23.17;;;;;;;2.56;100.00;97595.59;2066520;28;20619;-72
2022/04/05 04:46:04;;;;;;;25.25;23.30;;;;;;;2.54;100.00;97590.63;2066730;28;20200;-72
2022/04/05 04:47:08;;;;;;;24.20;22.40;;;;;;;2.60;100.00;97596.59;2066652;28;20197;-71
2022/04/05 04:48:10;;;;;;;24.48;22.50;;;;;;;2.63;100.00;97598.69;2066398;28;20193;-72
2022/04/05 04:49:11;;;;;;;24.33;22.52;;;;;;;2.64;100.00;97596.84;2066375;28;20607;-72